Time;durP1;ratioP1;P1;durP2;ratioP2;P2;SDS_P1;SDS_P2;PMS_P1;PMS_P2;Temp;Humidity;BMP_temperature;BMP_pressure;BME280_temperature;BME280_humidity;BME280_pressure;Samples;Min_cycle;Max_cycle;Signal;HPM_P1;HPM_P2
2022/08/29 00:03:54;;;;;;;22.98;5.63;;;;;;;;;;10339580;28;20071;-65
2022/08/29 00:08:52;;;;;;;18.02;5.97;;;;;;;;;;10342274;28;20051;-64
2022/08/29 00:13:51;;;;;;;14.05;5.60;;;;;;;;;;10342533;28;20163;-65
2022/08/29 00:18:49;;;;;;;65.90;8.75;;;;;;;;;;10341197;28;20067;-65
2022/08/29 00:23:49;;;;;;;11.93;5.13;;;;;;;;;;10342307;28;20948;-64
2022/08/29 00:28:47;;;;;;;15.95;4.70;;;;;;;;;;10340792;28;20083;-65
2022/08/29 00:33:45;;;;;;;24.48;5.43;;;;;;;;;;10351232;28;20082;-65
2022/08/29 00:38:44;;;;;;;14.40;4.88;;;;;;;;;;10355279;28;20067;-65
2022/08/29 00:43:43;;;;;;;19.30;6.80;;;;;;;;;;10354820;28;20074;-65
2022/08/29 00:48:42;;;;;;;17.05;4.15;;;;;;;;;;10354761;28;20075;-65
2022/08/29 00:53:42;;;;;;;23.58;5.82;;;;;;;;;;10341639;28;20543;-65
2022/08/29 00:58:41;;;;;;;13.23;5.95;;;;;;;;;;10340431;28;20485;-65
2022/08/29 01:03:41;;;;;;;11.57;4.45;;;;;;;;;;10340514;28;20067;-65
2022/08/29 01:08:40;;;;;;;25.17;5.25;;;;;;;;;;10341221;28;20067;-65
2022/08/29 01:13:39;;;;;;;12.93;4.00;;;;;;;;;;10349124;28;20047;-65
2022/08/29 01:18:39;;;;;;;22.70;5.28;;;;;;;;;;10348040;28;20078;-65
2022/08/29 01:23:46;;;;;;;16.75;5.53;;;;;;;;;;10348374;28;20070;-65
2022/08/29 01:28:47;;;;;;;12.77;3.85;;;;;;;;;;10347474;28;20068;-64
2022/08/29 01:33:47;;;;;;;24.48;7.00;;;;;;;;;;10348657;28;20453;-65
2022/08/29 01:38:46;;;;;;;19.73;5.03;;;;;;;;;;10346886;28;20465;-67
2022/08/29 01:43:47;;;;;;;22.17;5.13;;;;;;;;;;10347997;28;20094;-68
2022/08/29 01:48:46;;;;;;;22.67;6.00;;;;;;;;;;10345039;28;20087;-67
2022/08/29 01:53:44;;;;;;;12.27;5.13;;;;;;;;;;10347513;28;20079;-67
2022/08/29 01:58:46;;;;;;;13.60;5.13;;;;;;;;;;10345423;28;20064;-67
2022/08/29 02:03:46;;;;;;;16.25;5.20;;;;;;;;;;10351861;28;20071;-67
2022/08/29 02:08:44;;;;;;;24.45;5.63;;;;;;;;;;10346206;28;20075;-67
2022/08/29 02:13:44;;;;;;;16.42;4.03;;;;;;;;;;10343461;28;20071;-67
2022/08/29 02:18:43;;;;;;;18.50;5.78;;;;;;;;;;10342148;28;20067;-67
2022/08/29 02:23:43;;;;;;;14.82;4.82;;;;;;;;;;10341779;28;20071;-67
2022/08/29 02:28:41;;;;;;;9.93;5.15;;;;;;;;;;10344145;28;20090;-67
2022/08/29 02:33:39;;;;;;;21.25;6.28;;;;;;;;;;10344184;28;20091;-67
2022/08/29 02:38:38;;;;;;;9.38;4.88;;;;;;;;;;10345689;28;20500;-68
2022/08/29 02:43:38;;;;;;;16.58;4.40;;;;;;;;;;10345636;28;20063;-67
2022/08/29 02:48:36;;;;;;;17.67;5.30;;;;;;;;;;10344088;28;20079;-67
2022/08/29 02:53:34;;;;;;;12.77;5.30;;;;;;;;;;10344356;28;20043;-67
2022/08/29 02:58:33;;;;;;;18.00;6.32;;;;;;;;;;10345219;28;20043;-67
2022/08/29 03:03:33;;;;;;;24.88;7.13;;;;;;;;;;10344415;28;20063;-67
2022/08/29 03:08:32;;;;;;;22.10;4.60;;;;;;;;;;10342845;28;20350;-67
2022/08/29 03:13:30;;;;;;;13.25;4.93;;;;;;;;;;10343890;28;20071;-67
2022/08/29 03:18:28;;;;;;;15.18;4.40;;;;;;;;;;10343280;28;20071;-67
2022/08/29 03:23:28;;;;;;;15.75;4.88;;;;;;;;;;10342209;28;20476;-67
2022/08/29 03:28:26;;;;;;;15.45;5.45;;;;;;;;;;10339756;28;20051;-67
2022/08/29 03:33:25;;;;;;;13.63;4.95;;;;;;;;;;10339117;28;20068;-66
2022/08/29 03:38:23;;;;;;;13.48;4.45;;;;;;;;;;10338910;28;20454;-67
2022/08/29 03:43:23;;;;;;;13.68;5.47;;;;;;;;;;10341796;28;20075;-67
2022/08/29 03:48:21;;;;;;;16.30;5.45;;;;;;;;;;10341298;28;20071;-66
2022/08/29 03:53:19;;;;;;;19.55;5.10;;;;;;;;;;10341597;28;20102;-67
2022/08/29 03:58:18;;;;;;;24.30;4.82;;;;;;;;;;10341668;28;20078;-67
2022/08/29 04:03:18;;;;;;;16.88;5.32;;;;;;;;;;10340972;28;20079;-67
2022/08/29 04:08:21;;;;;;;19.77;6.05;;;;;;;;;;10337679;28;20141;-66
2022/08/29 04:13:20;;;;;;;16.33;5.72;;;;;;;;;;10340430;28;20083;-66
2022/08/29 04:18:20;;;;;;;16.73;5.85;;;;;;;;;;10341798;28;20071;-66
2022/08/29 04:23:19;;;;;;;14.80;5.43;;;;;;;;;;10348900;28;20489;-66
2022/08/29 04:28:17;;;;;;;17.70;7.38;;;;;;;;;;10345637;28;20062;-66
2022/08/29 04:33:16;;;;;;;26.08;7.68;;;;;;;;;;10336977;28;20636;-66
2022/08/29 04:38:19;;;;;;;;;;;;;;;;;;10346510;28;20074;-66
2022/08/29 04:43:19;;;;;;;20.30;6.10;;;;;;;;;;10342162;28;20364;-67
2022/08/29 04:48:18;;;;;;;42.03;10.07;;;;;;;;;;10351945;28;20081;-68
2022/08/29 04:53:16;;;;;;;19.13;5.35;;;;;;;;;;10331208;28;20397;-69
2022/08/29 04:58:15;;;;;;;21.88;11.93;;;;;;;;;;10346293;28;20067;-67
2022/08/29 05:03:14;;;;;;;19.80;11.88;;;;;;;;;;10349510;28;20071;-67
2022/08/29 05:08:13;;;;;;;22.38;8.02;;;;;;;;;;10357790;28;20060;-67
2022/08/29 05:13:11;;;;;;;17.23;5.60;;;;;;;;;;10352336;28;20074;-67
2022/08/29 05:18:09;;;;;;;25.27;10.05;;;;;;;;;;10350304;28;20075;-66
2022/08/29 05:23:09;;;;;;;23.88;9.32;;;;;;;;;;10351424;28;20063;-69
2022/08/29 05:28:12;;;;;;;21.23;6.10;;;;;;;;;;10357648;28;20064;-66
2022/08/29 05:33:11;;;;;;;34.08;6.50;;;;;;;;;;10360181;28;20072;-67
2022/08/29 05:38:11;;;;;;;18.48;5.65;;;;;;;;;;10358514;28;20056;-67
2022/08/29 05:43:10;;;;;;;19.48;6.05;;;;;;;;;;10358487;28;20076;-67
2022/08/29 05:48:09;;;;;;;21.60;5.78;;;;;;;;;;10349632;28;20067;-68
2022/08/29 05:53:08;;;;;;;11.30;5.78;;;;;;;;;;10349784;28;20107;-67
2022/08/29 05:58:08;;;;;;;18.70;6.15;;;;;;;;;;10350792;28;20063;-67
2022/08/29 06:03:06;;;;;;;24.35;6.65;;;;;;;;;;10351772;28;20095;-66
2022/08/29 06:08:05;;;;;;;17.60;5.38;;;;;;;;;;10352261;28;20457;-67
2022/08/29 06:13:03;;;;;;;22.65;5.30;;;;;;;;;;10353817;28;20491;-67
2022/08/29 06:18:03;;;;;;;19.33;6.53;;;;;;;;;;10343244;28;20067;-66
2022/08/29 06:23:01;;;;;;;15.85;5.13;;;;;;;;;;10339380;28;20095;-66
2022/08/29 06:27:59;;;;;;;20.63;6.05;;;;;;;;;;10339336;28;20059;-67
2022/08/29 06:32:58;;;;;;;17.02;5.35;;;;;;;;;;10338220;28;20064;-67
2022/08/29 06:37:57;;;;;;;17.13;6.55;;;;;;;;;;10356924;28;20040;-69
2022/08/29 06:42:56;;;;;;;22.10;6.38;;;;;;;;;;10354270;28;20071;-67
2022/08/29 06:47:54;;;;;;;27.63;6.55;;;;;;;;;;10354015;28;20075;-67
2022/08/29 06:52:52;;;;;;;27.02;6.63;;;;;;;;;;10353744;28;20060;-67
2022/08/29 06:57:54;;;;;;;37.80;9.00;;;;;;;;;;10341913;28;20096;-67
2022/08/29 07:02:52;;;;;;;28.95;6.43;;;;;;;;;;10344227;28;20072;-67
2022/08/29 07:07:51;;;;;;;16.00;6.32;;;;;;;;;;10343347;28;20088;-67
2022/08/29 07:12:49;;;;;;;19.60;6.03;;;;;;;;;;10344179;28;20083;-66
2022/08/29 07:17:49;;;;;;;9.90;4.53;;;;;;;;;;10343446;28;20083;-66
2022/08/29 07:22:50;;;;;;;18.40;5.32;;;;;;;;;;10342901;28;20076;-67
2022/08/29 07:27:48;;;;;;;15.70;6.30;;;;;;;;;;10343830;28;20045;-67
2022/08/29 07:32:52;;;;;;;15.50;5.80;;;;;;;;;;10341533;28;20083;-67
2022/08/29 07:37:50;;;;;;;14.85;5.57;;;;;;;;;;10341803;28;20068;-67
2022/08/29 07:42:48;;;;;;;20.45;6.55;;;;;;;;;;10342673;28;20072;-67
2022/08/29 07:47:46;;;;;;;18.95;6.00;;;;;;;;;;10342397;28;20475;-67
2022/08/29 07:52:47;;;;;;;17.25;5.93;;;;;;;;;;10325328;28;20048;-67
2022/08/29 07:57:47;;;;;;;23.23;6.32;;;;;;;;;;10343041;28;20560;-67
2022/08/29 08:02:46;;;;;;;15.40;5.38;;;;;;;;;;10341314;28;20072;-67
2022/08/29 08:07:48;;;;;;;15.77;5.82;;;;;;;;;;10341348;28;20072;-67
2022/08/29 08:12:52;;;;;;;19.58;5.95;;;;;;;;;;10342484;28;20515;-67
2022/08/29 08:17:50;;;;;;;27.00;7.15;;;;;;;;;;10334996;28;20052;-68
2022/08/29 08:22:50;;;;;;;19.83;6.25;;;;;;;;;;10341378;28;20087;-67
2022/08/29 08:27:48;;;;;;;23.40;7.32;;;;;;;;;;10323400;28;20386;-67
2022/08/29 08:32:47;;;;;;;18.40;6.53;;;;;;;;;;10339765;28;20076;-67
2022/08/29 08:37:53;;;;;;;14.93;6.15;;;;;;;;;;10341316;28;20064;-67
2022/08/29 08:42:51;;;;;;;26.40;7.50;;;;;;;;;;10340662;28;20079;-67
2022/08/29 08:47:51;;;;;;;20.20;5.68;;;;;;;;;;10339874;28;20091;-67
2022/08/29 08:52:52;;;;;;;13.07;5.40;;;;;;;;;;10339429;28;20466;-67
2022/08/29 08:57:55;;;;;;;23.38;5.30;;;;;;;;;;10338264;28;20105;-67
2022/08/29 09:03:00;;;;;;;16.65;4.97;;;;;;;;;;10339537;28;20509;-67
2022/08/29 09:08:04;;;;;;;14.25;5.72;;;;;;;;;;10340055;28;20068;-67
2022/08/29 09:13:11;;;;;;;12.25;5.93;;;;;;;;;;10339724;28;20557;-67
2022/08/29 09:18:11;;;;;;;19.45;6.25;;;;;;;;;;10353713;28;20063;-67
2022/08/29 09:23:13;;;;;;;26.00;6.65;;;;;;;;;;10354922;28;20080;-67
2022/08/29 09:28:13;;;;;;;17.00;5.90;;;;;;;;;;10354096;28;20044;-68
2022/08/29 09:33:13;;;;;;;15.88;5.32;;;;;;;;;;10344603;28;20484;-67
2022/08/29 09:38:20;;;;;;;22.50;5.03;;;;;;;;;;10345903;28;20040;-68
2022/08/29 09:43:22;;;;;;;22.27;6.22;;;;;;;;;;10348482;28;20083;-67
2022/08/29 09:48:21;;;;;;;16.80;5.45;;;;;;;;;;10347318;28;20076;-68
2022/08/29 09:53:22;;;;;;;20.98;5.75;;;;;;;;;;10346544;28;20564;-68
2022/08/29 09:58:30;;;;;;;22.55;5.70;;;;;;;;;;10347507;28;20421;-67
2022/08/29 10:03:35;;;;;;;19.30;6.03;;;;;;;;;;10343631;28;20079;-67
2022/08/29 10:08:36;;;;;;;24.52;5.53;;;;;;;;;;10345411;28;20078;-67
2022/08/29 10:13:42;;;;;;;23.80;5.40;;;;;;;;;;10346574;28;20068;-67
2022/08/29 10:18:43;;;;;;;14.18;4.57;;;;;;;;;;10346402;28;20097;-67
2022/08/29 10:23:49;;;;;;;17.63;5.13;;;;;;;;;;10346149;28;20075;-68
2022/08/29 10:28:52;;;;;;;16.88;4.85;;;;;;;;;;10345631;28;20071;-68
2022/08/29 10:34:00;;;;;;;17.98;5.88;;;;;;;;;;10345863;28;20055;-67
2022/08/29 10:39:02;;;;;;;25.00;5.45;;;;;;;;;;10346014;28;20493;-67
2022/08/29 10:44:07;;;;;;;12.20;4.93;;;;;;;;;;10345035;28;20082;-68
2022/08/29 10:49:12;;;;;;;20.60;6.22;;;;;;;;;;10344720;28;20310;-68
2022/08/29 10:54:17;;;;;;;21.67;5.15;;;;;;;;;;10344577;28;20067;-68
2022/08/29 10:59:20;;;;;;;19.83;5.88;;;;;;;;;;10344723;28;20064;-67
2022/08/29 11:04:21;;;;;;;13.45;5.22;;;;;;;;;;10345028;28;20071;-68
2022/08/29 11:09:22;;;;;;;24.02;6.47;;;;;;;;;;10338267;28;20040;-68
2022/08/29 11:14:24;;;;;;;18.30;5.82;;;;;;;;;;10337788;28;20079;-68
2022/08/29 11:19:25;;;;;;;28.27;6.17;;;;;;;;;;10338237;28;20079;-68
2022/08/29 11:24:25;;;;;;;22.50;6.30;;;;;;;;;;10344365;28;20063;-68
2022/08/29 11:29:26;;;;;;;;;;;;;;;;;;10343606;28;20086;-68
2022/08/29 11:34:31;;;;;;;19.45;4.95;;;;;;;;;;10340444;28;20405;-67
2022/08/29 11:39:35;;;;;;;23.27;5.85;;;;;;;;;;10337900;28;20071;-68
2022/08/29 11:44:38;;;;;;;16.17;5.47;;;;;;;;;;10343247;28;20078;-68
2022/08/29 11:49:39;;;;;;;11.57;5.32;;;;;;;;;;10342067;28;20079;-68
2022/08/29 11:55:01;;;;;;;16.42;5.20;;;;;;;;;;10341838;28;20073;-68
2022/08/29 12:00:00;;;;;;;14.55;4.72;;;;;;;;;;10323378;28;20075;-68
2022/08/29 12:05:08;;;;;;;15.20;5.35;;;;;;;;;;10347051;28;20090;-68
2022/08/29 12:10:09;;;;;;;19.70;4.93;;;;;;;;;;10343030;28;20532;-67
2022/08/29 12:15:25;;;;;;;18.92;5.22;;;;;;;;;;10343593;28;20040;-68
2022/08/29 12:20:35;;;;;;;15.32;5.35;;;;;;;;;;10342800;28;20461;-67
2022/08/29 12:25:42;;;;;;;19.33;5.45;;;;;;;;;;10344709;28;20083;-67
2022/08/29 12:30:42;;;;;;;17.23;5.05;;;;;;;;;;10341976;28;20091;-67
2022/08/29 12:35:53;;;;;;;21.35;5.35;;;;;;;;;;10342256;28;20537;-67
2022/08/29 12:41:03;;;;;;;24.65;5.13;;;;;;;;;;10342648;28;20080;-68
2022/08/29 12:46:02;;;;;;;16.92;5.90;;;;;;;;;;10340338;28;20079;-68
2022/08/29 12:51:03;;;;;;;13.57;4.85;;;;;;;;;;10340857;28;20094;-68
2022/08/29 12:56:04;;;;;;;17.80;5.75;;;;;;;;;;10342158;28;21002;-67
2022/08/29 13:01:02;;;;;;;22.17;5.43;;;;;;;;;;10340807;28;20075;-68
2022/08/29 13:06:08;;;;;;;16.45;5.22;;;;;;;;;;10344857;28;20645;-68
2022/08/29 13:11:08;;;;;;;25.55;7.40;;;;;;;;;;10356549;28;20071;-68
2022/08/29 13:16:07;;;;;;;15.65;4.25;;;;;;;;;;10347596;28;20079;-68
2022/08/29 13:21:10;;;;;;;20.05;8.05;;;;;;;;;;10349224;28;20489;-69
2022/08/29 13:26:18;;;;;;;17.73;5.38;;;;;;;;;;10347912;28;20529;-68
2022/08/29 13:31:26;;;;;;;13.88;5.13;;;;;;;;;;10348153;28;20509;-70
2022/08/29 13:36:37;;;;;;;16.13;4.95;;;;;;;;;;10346134;28;20076;-68
2022/08/29 13:41:36;;;;;;;20.15;5.40;;;;;;;;;;10349618;28;20093;-67
2022/08/29 13:46:38;;;;;;;17.48;5.13;;;;;;;;;;10353782;28;20085;-67
2022/08/29 13:51:38;;;;;;;15.18;4.78;;;;;;;;;;10319407;28;20051;-68
2022/08/29 13:56:37;;;;;;;18.63;8.77;;;;;;;;;;10317543;28;20067;-67
2022/08/29 14:01:35;;;;;;;13.75;6.13;;;;;;;;;;10308351;28;20071;-67
2022/08/29 14:06:55;;;;;;;23.25;5.45;;;;;;;;;;10301621;28;20068;-68
2022/08/29 14:11:54;;;;;;;21.48;5.82;;;;;;;;;;10303311;28;20381;-68
2022/08/29 14:16:53;;;;;;;25.08;9.38;;;;;;;;;;10314038;28;20048;-68
2022/08/29 14:21:51;;;;;;;26.60;10.85;;;;;;;;;;10314634;28;20148;-68
2022/08/29 14:26:51;;;;;;;14.93;5.05;;;;;;;;;;10302612;28;20463;-68
2022/08/29 14:31:59;;;;;;;16.77;5.65;;;;;;;;;;10303804;28;20505;-68
2022/08/29 14:37:00;;;;;;;10.07;6.80;;;;;;;;;;10312359;28;20072;-68
2022/08/29 14:42:00;;;;;;;23.60;7.28;;;;;;;;;;10317351;28;20094;-68
2022/08/29 14:46:58;;;;;;;20.08;4.95;;;;;;;;;;10309768;28;20089;-68
2022/08/29 14:51:56;;;;;;;16.10;4.93;;;;;;;;;;10306025;28;20518;-68
2022/08/29 14:56:55;;;;;;;20.08;6.15;;;;;;;;;;10300577;28;20522;-68
2022/08/29 15:01:55;;;;;;;19.55;7.07;;;;;;;;;;10300961;28;20071;-68
2022/08/29 15:06:53;;;;;;;17.60;6.10;;;;;;;;;;10301102;28;20064;-68
2022/08/29 15:12:09;;;;;;;18.88;7.72;;;;;;;;;;10302003;28;20061;-68
2022/08/29 15:17:09;;;;;;;26.95;8.02;;;;;;;;;;10300804;28;20498;-68
2022/08/29 15:22:08;;;;;;;17.90;5.13;;;;;;;;;;10300369;28;20073;-67
2022/08/29 15:27:06;;;;;;;21.65;8.52;;;;;;;;;;10300591;28;20060;-68
2022/08/29 15:32:04;;;;;;;17.60;5.60;;;;;;;;;;10282766;28;20072;-67
2022/08/29 15:37:05;;;;;;;18.67;6.60;;;;;;;;;;10300473;28;20073;-67
2022/08/29 15:42:07;;;;;;;17.65;8.20;;;;;;;;;;10300527;28;20079;-68
2022/08/29 15:47:05;;;;;;;12.15;5.75;;;;;;;;;;10300893;28;20087;-67
2022/08/29 15:52:10;;;;;;;16.60;7.25;;;;;;;;;;10298398;28;20457;-66
2022/08/29 15:57:09;;;;;;;28.50;7.45;;;;;;;;;;10301728;28;20470;-67
2022/08/29 16:02:09;;;;;;;14.60;7.30;;;;;;;;;;10298888;28;20086;-67
2022/08/29 16:07:09;;;;;;;20.98;7.35;;;;;;;;;;10299297;28;20091;-67
2022/08/29 16:12:07;;;;;;;9.02;6.40;;;;;;;;;;10299168;28;20092;-67
2022/08/29 16:17:06;;;;;;;21.20;6.30;;;;;;;;;;10298594;28;20084;-67
2022/08/29 16:22:04;;;;;;;18.23;6.88;;;;;;;;;;10298597;28;20480;-67
2022/08/29 16:27:08;;;;;;;18.40;6.50;;;;;;;;;;10298836;28;20076;-67
2022/08/29 16:32:07;;;;;;;18.83;7.53;;;;;;;;;;10304618;28;20083;-67
2022/08/29 16:37:06;;;;;;;23.92;8.27;;;;;;;;;;10294396;28;20493;-65
2022/08/29 16:42:08;;;;;;;24.92;8.40;;;;;;;;;;10321632;28;20461;-64
2022/08/29 16:47:06;;;;;;;19.63;6.13;;;;;;;;;;10321738;28;20080;-65
2022/08/29 16:52:05;;;;;;;20.20;7.80;;;;;;;;;;10315611;28;20068;-66
2022/08/29 16:57:03;;;;;;;13.10;7.05;;;;;;;;;;10311356;28;20056;-66
2022/08/29 17:02:03;;;;;;;12.98;6.80;;;;;;;;;;10309605;28;20068;-66
2022/08/29 17:07:02;;;;;;;28.50;11.20;;;;;;;;;;10315842;28;20163;-66
2022/08/29 17:17:00;;;;;;;31.67;24.10;;;;;;;;;;10307112;28;20077;-65
2022/08/29 17:22:00;;;;;;;23.90;10.80;;;;;;;;;;10313042;28;20068;-65
2022/08/29 17:26:59;;;;;;;15.07;8.18;;;;;;;;;;10316540;28;20088;-64
2022/08/29 17:31:57;;;;;;;20.73;8.88;;;;;;;;;;10308919;28;20079;-65
2022/08/29 17:36:55;;;;;;;28.45;16.00;;;;;;;;;;10312850;28;20079;-64
2022/08/29 17:41:55;;;;;;;12.40;6.13;;;;;;;;;;10324182;28;20510;-64
2022/08/29 17:46:54;;;;;;;20.40;7.32;;;;;;;;;;10326453;28;20092;-64
2022/08/29 17:51:53;;;;;;;24.48;8.73;;;;;;;;;;10306461;28;20061;-66
2022/08/29 17:56:53;;;;;;;20.90;7.05;;;;;;;;;;10304354;28;20080;-65
2022/08/29 18:01:53;;;;;;;15.35;5.72;;;;;;;;;;10304615;28;20068;-65
2022/08/29 18:06:51;;;;;;;20.30;5.93;;;;;;;;;;10314947;28;20162;-66
2022/08/29 18:11:51;;;;;;;19.33;6.75;;;;;;;;;;10308525;28;20083;-65
2022/08/29 18:16:51;;;;;;;15.68;6.43;;;;;;;;;;10303928;28;20072;-64
2022/08/29 18:21:51;;;;;;;12.82;5.35;;;;;;;;;;10308079;28;20068;-65
2022/08/29 18:26:50;;;;;;;9.68;5.20;;;;;;;;;;10314852;28;20064;-65
2022/08/29 18:31:49;;;;;;;21.50;6.40;;;;;;;;;;10303600;28;20073;-65
2022/08/29 18:36:47;;;;;;;15.70;6.28;;;;;;;;;;10306383;28;20068;-65
2022/08/29 18:41:47;;;;;;;17.48;6.43;;;;;;;;;;10311812;28;20078;-64
2022/08/29 18:46:46;;;;;;;12.35;6.57;;;;;;;;;;10295745;28;20073;-65
2022/08/29 18:51:45;;;;;;;21.00;6.60;;;;;;;;;;10308866;28;20115;-65
2022/08/29 18:56:44;;;;;;;13.77;6.05;;;;;;;;;;10306458;28;20454;-65
2022/08/29 19:01:43;;;;;;;16.55;6.00;;;;;;;;;;10304438;28;20080;-65
2022/08/29 19:06:42;;;;;;;17.15;5.78;;;;;;;;;;10302645;28;20072;-65
2022/08/29 19:11:40;;;;;;;14.35;5.53;;;;;;;;;;10306579;28;20056;-65
2022/08/29 19:16:39;;;;;;;20.13;5.88;;;;;;;;;;10307246;28;20076;-65
2022/08/29 19:21:40;;;;;;;10.25;5.35;;;;;;;;;;10302082;28;20110;-66
2022/08/29 19:26:38;;;;;;;16.02;6.03;;;;;;;;;;10297591;28;20080;-64
2022/08/29 19:31:37;;;;;;;12.95;6.13;;;;;;;;;;10300656;28;20068;-64
2022/08/29 19:36:35;;;;;;;26.25;6.97;;;;;;;;;;10300454;28;20071;-66
2022/08/29 19:41:35;;;;;;;15.10;6.93;;;;;;;;;;10300783;28;20083;-65
2022/08/29 19:46:34;;;;;;;19.40;8.85;;;;;;;;;;10301379;28;20086;-65
2022/08/29 19:51:33;;;;;;;18.30;9.98;;;;;;;;;;10296863;28;20499;-64
2022/08/29 19:56:33;;;;;;;30.05;7.90;;;;;;;;;;10285533;28;20079;-65
2022/08/29 20:01:33;;;;;;;14.50;6.15;;;;;;;;;;10300698;28;20051;-65
2022/08/29 20:06:33;;;;;;;17.92;5.68;;;;;;;;;;10301487;28;20075;-65
2022/08/29 20:11:32;;;;;;;12.50;5.57;;;;;;;;;;10300011;28;20517;-65
2022/08/29 20:16:42;;;;;;;21.30;5.90;;;;;;;;;;10301136;28;20442;-65
2022/08/29 20:21:42;;;;;;;13.73;6.07;;;;;;;;;;10300882;28;20087;-65
2022/08/29 20:26:40;;;;;;;11.98;5.45;;;;;;;;;;10298990;28;20069;-66
2022/08/29 20:31:38;;;;;;;20.63;7.63;;;;;;;;;;10295672;28;20073;-65
2022/08/29 20:41:55;;;;;;;12.13;5.20;;;;;;;;;;10304768;28;20068;-66
2022/08/29 20:46:54;;;;;;;23.13;6.68;;;;;;;;;;10295273;28;20498;-66
2022/08/29 20:51:54;;;;;;;19.65;5.80;;;;;;;;;;10300890;28;20071;-64
2022/08/29 20:56:52;;;;;;;14.82;5.72;;;;;;;;;;10292305;28;20068;-65
2022/08/29 21:01:50;;;;;;;11.00;5.57;;;;;;;;;;10276577;28;20057;-65
2022/08/29 21:06:53;;;;;;;17.88;5.88;;;;;;;;;;10296357;28;20083;-64
2022/08/29 21:11:52;;;;;;;19.33;5.85;;;;;;;;;;10298332;28;20068;-65
2022/08/29 21:16:51;;;;;;;17.90;5.40;;;;;;;;;;10294996;28;20068;-64
2022/08/29 21:21:50;;;;;;;15.02;5.30;;;;;;;;;;10296260;28;20072;-64
2022/08/29 21:26:48;;;;;;;17.75;5.53;;;;;;;;;;10299440;28;20037;-65
2022/08/29 21:31:48;;;;;;;13.65;5.10;;;;;;;;;;10302990;28;20069;-65
2022/08/29 21:36:46;;;;;;;16.35;6.20;;;;;;;;;;10307922;28;20548;-65
2022/08/29 21:41:45;;;;;;;18.23;4.82;;;;;;;;;;10303792;28;20069;-65
2022/08/29 21:46:44;;;;;;;16.70;5.22;;;;;;;;;;10308274;28;20036;-65
2022/08/29 21:51:45;;;;;;;20.10;5.35;;;;;;;;;;10304156;28;20068;-65
2022/08/29 21:56:43;;;;;;;11.68;4.70;;;;;;;;;;10305885;28;20309;-65
2022/08/29 22:01:42;;;;;;;20.17;5.10;;;;;;;;;;10304527;28;20467;-64
2022/08/29 22:06:41;;;;;;;14.10;4.68;;;;;;;;;;10304851;28;20072;-64
2022/08/29 22:11:59;;;;;;;26.13;6.05;;;;;;;;;;10302507;28;20318;-65
2022/08/29 22:16:57;;;;;;;14.55;5.63;;;;;;;;;;10288437;28;20541;-64
2022/08/29 22:21:55;;;;;;;11.27;5.18;;;;;;;;;;10299090;28;20091;-65
2022/08/29 22:26:54;;;;;;;10.93;4.47;;;;;;;;;;10300644;28;20091;-65
2022/08/29 22:31:59;;;;;;;11.70;4.50;;;;;;;;;;10297999;28;20073;-65
2022/08/29 22:36:57;;;;;;;12.93;4.68;;;;;;;;;;10312145;28;20083;-64
2022/08/29 22:41:55;;;;;;;16.42;4.78;;;;;;;;;;10317500;28;20072;-65
2022/08/29 22:46:55;;;;;;;17.17;6.20;;;;;;;;;;10302763;28;20417;-66
2022/08/29 22:51:54;;;;;;;9.32;5.05;;;;;;;;;;10305367;28;20080;-64
2022/08/29 22:56:52;;;;;;;13.75;5.13;;;;;;;;;;10304707;28;20068;-65
2022/08/29 23:01:52;;;;;;;15.15;5.03;;;;;;;;;;10300099;28;20083;-65
2022/08/29 23:06:52;;;;;;;13.73;4.70;;;;;;;;;;10284475;28;20045;-66
2022/08/29 23:11:52;;;;;;;11.05;4.80;;;;;;;;;;10302717;28;20075;-64
2022/08/29 23:16:51;;;;;;;16.15;4.60;;;;;;;;;;10301469;28;20060;-65
2022/08/29 23:21:49;;;;;;;17.58;4.95;;;;;;;;;;10302329;28;20061;-65
2022/08/29 23:26:49;;;;;;;13.10;4.65;;;;;;;;;;10300397;28;20069;-65
2022/08/29 23:31:48;;;;;;;23.25;5.70;;;;;;;;;;10299733;28;20068;-65
2022/08/29 23:36:46;;;;;;;17.42;4.80;;;;;;;;;;10299238;28;20073;-65
2022/08/29 23:41:45;;;;;;;16.00;6.60;;;;;;;;;;10302446;28;20069;-65
2022/08/29 23:46:56;;;;;;;12.02;5.53;;;;;;;;;;10282863;28;20072;-65
2022/08/29 23:51:56;;;;;;;14.63;5.72;;;;;;;;;;10282584;28;20076;-65
2022/08/29 23:57:05;;;;;;;11.25;5.32;;;;;;;;;;10300908;28;20052;-63
